sensor_id;sensor_type;location;lat;lon;timestamp;P1;durP1;ratioP1;P2;durP2;ratioP2
70985;SDS011;58645;43.068;25.610;2023-03-21T00:01:05;13.77;;;8.75;;
70985;SDS011;58645;43.068;25.610;2023-03-21T00:03:32;15.45;;;9.10;;
70985;SDS011;58645;43.068;25.610;2023-03-21T00:05:58;13.70;;;8.73;;
70985;SDS011;58645;43.068;25.610;2023-03-21T00:08:32;14.13;;;8.52;;
70985;SDS011;58645;43.068;25.610;2023-03-21T00:10:59;15.73;;;9.27;;
70985;SDS011;58645;43.068;25.610;2023-03-21T00:13:26;16.00;;;9.80;;
70985;SDS011;58645;43.068;25.610;2023-03-21T00:15:57;14.63;;;9.25;;
70985;SDS011;58645;43.068;25.610;2023-03-21T00:18:30;15.52;;;9.32;;
70985;SDS011;58645;43.068;25.610;2023-03-21T00:20:59;17.63;;;9.35;;
70985;SDS011;58645;43.068;25.610;2023-03-21T00:23:27;18.77;;;9.07;;
70985;SDS011;58645;43.068;25.610;2023-03-21T00:25:55;14.02;;;9.05;;
70985;SDS011;58645;43.068;25.610;2023-03-21T00:28:22;16.75;;;9.43;;
70985;SDS011;58645;43.068;25.610;2023-03-21T00:30:48;19.63;;;10.80;;
70985;SDS011;58645;43.068;25.610;2023-03-21T00:33:14;22.80;;;16.10;;
70985;SDS011;58645;43.068;25.610;2023-03-21T00:35:40;19.70;;;11.77;;
70985;SDS011;58645;43.068;25.610;2023-03-21T00:38:09;17.27;;;10.13;;
70985;SDS011;58645;43.068;25.610;2023-03-21T00:40:35;15.80;;;8.65;;
70985;SDS011;58645;43.068;25.610;2023-03-21T00:43:01;14.45;;;8.98;;
70985;SDS011;58645;43.068;25.610;2023-03-21T00:45:26;19.08;;;11.63;;
70985;SDS011;58645;43.068;25.610;2023-03-21T00:47:52;15.50;;;9.55;;
70985;SDS011;58645;43.068;25.610;2023-03-21T00:50:18;16.45;;;9.55;;
70985;SDS011;58645;43.068;25.610;2023-03-21T00:52:43;16.05;;;9.07;;
70985;SDS011;58645;43.068;25.610;2023-03-21T00:55:12;14.48;;;8.57;;
70985;SDS011;58645;43.068;25.610;2023-03-21T00:57:39;15.13;;;8.88;;
70985;SDS011;58645;43.068;25.610;2023-03-21T01:00:06;17.00;;;9.73;;
70985;SDS011;58645;43.068;25.610;2023-03-21T01:02:35;13.20;;;9.07;;
70985;SDS011;58645;43.068;25.610;2023-03-21T01:05:02;13.50;;;8.77;;
70985;SDS011;58645;43.068;25.610;2023-03-21T01:07:29;13.85;;;8.93;;
70985;SDS011;58645;43.068;25.610;2023-03-21T01:09:54;16.83;;;9.45;;
70985;SDS011;58645;43.068;25.610;2023-03-21T01:12:20;14.95;;;9.18;;
70985;SDS011;58645;43.068;25.610;2023-03-21T01:14:46;16.63;;;9.38;;
70985;SDS011;58645;43.068;25.610;2023-03-21T01:17:12;11.90;;;8.02;;
70985;SDS011;58645;43.068;25.610;2023-03-21T01:19:37;13.23;;;8.13;;
70985;SDS011;58645;43.068;25.610;2023-03-21T01:22:03;12.00;;;8.00;;
70985;SDS011;58645;43.068;25.610;2023-03-21T01:24:29;12.05;;;7.28;;
70985;SDS011;58645;43.068;25.610;2023-03-21T01:26:55;13.30;;;8.48;;
70985;SDS011;58645;43.068;25.610;2023-03-21T01:29:21;15.98;;;8.90;;
70985;SDS011;58645;43.068;25.610;2023-03-21T01:31:46;13.43;;;8.45;;
70985;SDS011;58645;43.068;25.610;2023-03-21T01:34:12;13.95;;;8.50;;
70985;SDS011;58645;43.068;25.610;2023-03-21T01:36:38;14.95;;;9.07;;
70985;SDS011;58645;43.068;25.610;2023-03-21T01:39:04;16.10;;;9.55;;
70985;SDS011;58645;43.068;25.610;2023-03-21T01:41:34;14.05;;;8.93;;
70985;SDS011;58645;43.068;25.610;2023-03-21T01:44:03;14.15;;;9.20;;
70985;SDS011;58645;43.068;25.610;2023-03-21T01:46:43;12.98;;;8.57;;
70985;SDS011;58645;43.068;25.610;2023-03-21T01:49:33;17.77;;;8.60;;
70985;SDS011;58645;43.068;25.610;2023-03-21T01:52:05;14.43;;;8.77;;
70985;SDS011;58645;43.068;25.610;2023-03-21T01:54:34;16.10;;;9.20;;
70985;SDS011;58645;43.068;25.610;2023-03-21T01:57:05;16.58;;;10.27;;
70985;SDS011;58645;43.068;25.610;2023-03-21T01:59:35;17.42;;;10.77;;
70985;SDS011;58645;43.068;25.610;2023-03-21T02:02:08;17.40;;;9.82;;
70985;SDS011;58645;43.068;25.610;2023-03-21T02:04:39;14.50;;;8.98;;
70985;SDS011;58645;43.068;25.610;2023-03-21T02:07:12;12.55;;;8.50;;
70985;SDS011;58645;43.068;25.610;2023-03-21T02:09:45;20.40;;;9.70;;
70985;SDS011;58645;43.068;25.610;2023-03-21T02:12:13;15.93;;;9.35;;
70985;SDS011;58645;43.068;25.610;2023-03-21T02:14:40;15.45;;;9.18;;
70985;SDS011;58645;43.068;25.610;2023-03-21T02:27:39;20.50;;;12.93;;
70985;SDS011;58645;43.068;25.610;2023-03-21T02:38:22;17.17;;;10.30;;
70985;SDS011;58645;43.068;25.610;2023-03-21T02:41:12;17.75;;;9.52;;
70985;SDS011;58645;43.068;25.610;2023-03-21T02:44:05;14.10;;;8.52;;
70985;SDS011;58645;43.068;25.610;2023-03-21T02:52:15;16.15;;;10.02;;
70985;SDS011;58645;43.068;25.610;2023-03-21T02:54:46;17.13;;;10.18;;
70985;SDS011;58645;43.068;25.610;2023-03-21T02:57:15;16.92;;;10.55;;
70985;SDS011;58645;43.068;25.610;2023-03-21T02:59:42;15.85;;;9.90;;
70985;SDS011;58645;43.068;25.610;2023-03-21T03:02:09;15.60;;;9.82;;
70985;SDS011;58645;43.068;25.610;2023-03-21T03:04:35;18.58;;;10.43;;
70985;SDS011;58645;43.068;25.610;2023-03-21T03:20:42;15.98;;;9.82;;
70985;SDS011;58645;43.068;25.610;2023-03-21T03:28:36;15.48;;;10.32;;
70985;SDS011;58645;43.068;25.610;2023-03-21T03:31:05;16.75;;;10.50;;
70985;SDS011;58645;43.068;25.610;2023-03-21T03:33:33;15.80;;;9.07;;
70985;SDS011;58645;43.068;25.610;2023-03-21T03:36:02;18.25;;;10.10;;
70985;SDS011;58645;43.068;25.610;2023-03-21T03:38:29;16.75;;;10.48;;
70985;SDS011;58645;43.068;25.610;2023-03-21T03:41:04;21.17;;;10.07;;
70985;SDS011;58645;43.068;25.610;2023-03-21T03:46:13;14.85;;;9.45;;
70985;SDS011;58645;43.068;25.610;2023-03-21T03:49:00;13.85;;;8.07;;
70985;SDS011;58645;43.068;25.610;2023-03-21T03:51:34;13.32;;;8.52;;
70985;SDS011;58645;43.068;25.610;2023-03-21T03:54:13;14.95;;;8.02;;
70985;SDS011;58645;43.068;25.610;2023-03-21T03:56:43;14.35;;;7.63;;
70985;SDS011;58645;43.068;25.610;2023-03-21T03:59:10;12.73;;;8.20;;
70985;SDS011;58645;43.068;25.610;2023-03-21T04:01:36;12.73;;;7.30;;
70985;SDS011;58645;43.068;25.610;2023-03-21T04:04:01;12.98;;;7.95;;
70985;SDS011;58645;43.068;25.610;2023-03-21T04:06:27;10.65;;;6.95;;
70985;SDS011;58645;43.068;25.610;2023-03-21T04:08:54;10.80;;;7.18;;
70985;SDS011;58645;43.068;25.610;2023-03-21T04:11:21;10.43;;;6.85;;
70985;SDS011;58645;43.068;25.610;2023-03-21T04:13:47;10.45;;;6.28;;
70985;SDS011;58645;43.068;25.610;2023-03-21T04:16:14;14.50;;;8.13;;
70985;SDS011;58645;43.068;25.610;2023-03-21T04:18:40;14.77;;;8.18;;
70985;SDS011;58645;43.068;25.610;2023-03-21T04:21:07;15.20;;;10.00;;
70985;SDS011;58645;43.068;25.610;2023-03-21T04:23:34;16.83;;;9.75;;
70985;SDS011;58645;43.068;25.610;2023-03-21T04:26:01;17.02;;;9.77;;
70985;SDS011;58645;43.068;25.610;2023-03-21T04:28:27;14.05;;;9.00;;
70985;SDS011;58645;43.068;25.610;2023-03-21T04:30:53;16.17;;;9.10;;
70985;SDS011;58645;43.068;25.610;2023-03-21T04:33:22;13.88;;;8.90;;
70985;SDS011;58645;43.068;25.610;2023-03-21T04:35:50;13.93;;;8.65;;
70985;SDS011;58645;43.068;25.610;2023-03-21T04:38:29;16.27;;;9.38;;
70985;SDS011;58645;43.068;25.610;2023-03-21T04:40:55;16.60;;;9.27;;
70985;SDS011;58645;43.068;25.610;2023-03-21T04:43:22;14.43;;;8.68;;
70985;SDS011;58645;43.068;25.610;2023-03-21T04:45:48;14.40;;;9.05;;
70985;SDS011;58645;43.068;25.610;2023-03-21T04:48:14;15.20;;;9.52;;
70985;SDS011;58645;43.068;25.610;2023-03-21T04:50:42;14.10;;;8.57;;
70985;SDS011;58645;43.068;25.610;2023-03-21T04:53:08;19.17;;;9.35;;
70985;SDS011;58645;43.068;25.610;2023-03-21T04:55:34;15.27;;;9.32;;
70985;SDS011;58645;43.068;25.610;2023-03-21T04:58:01;15.35;;;9.57;;
70985;SDS011;58645;43.068;25.610;2023-03-21T05:00:28;16.63;;;9.77;;
70985;SDS011;58645;43.068;25.610;2023-03-21T05:02:54;16.42;;;8.98;;
70985;SDS011;58645;43.068;25.610;2023-03-21T05:05:21;14.90;;;8.23;;
70985;SDS011;58645;43.068;25.610;2023-03-21T05:07:47;16.15;;;8.40;;
70985;SDS011;58645;43.068;25.610;2023-03-21T05:10:13;13.77;;;9.00;;
70985;SDS011;58645;43.068;25.610;2023-03-21T05:12:39;14.73;;;9.73;;
70985;SDS011;58645;43.068;25.610;2023-03-21T05:15:05;17.42;;;9.57;;
70985;SDS011;58645;43.068;25.610;2023-03-21T05:19:57;17.83;;;9.57;;
70985;SDS011;58645;43.068;25.610;2023-03-21T05:22:23;19.48;;;9.95;;
70985;SDS011;58645;43.068;25.610;2023-03-21T05:24:51;17.17;;;10.02;;
70985;SDS011;58645;43.068;25.610;2023-03-21T05:27:19;22.58;;;9.27;;
70985;SDS011;58645;43.068;25.610;2023-03-21T05:29:59;18.45;;;11.27;;
70985;SDS011;58645;43.068;25.610;2023-03-21T05:32:32;18.42;;;10.45;;
70985;SDS011;58645;43.068;25.610;2023-03-21T05:34:58;15.32;;;9.82;;
70985;SDS011;58645;43.068;25.610;2023-03-21T05:37:24;16.25;;;9.93;;
70985;SDS011;58645;43.068;25.610;2023-03-21T05:39:50;16.27;;;9.60;;
70985;SDS011;58645;43.068;25.610;2023-03-21T05:42:16;15.20;;;8.95;;
70985;SDS011;58645;43.068;25.610;2023-03-21T05:44:44;14.35;;;8.57;;
70985;SDS011;58645;43.068;25.610;2023-03-21T05:47:19;12.75;;;7.88;;
70985;SDS011;58645;43.068;25.610;2023-03-21T05:49:51;13.63;;;8.38;;
70985;SDS011;58645;43.068;25.610;2023-03-21T05:52:43;16.08;;;7.90;;
70985;SDS011;58645;43.068;25.610;2023-03-21T05:55:49;13.65;;;7.95;;
70985;SDS011;58645;43.068;25.610;2023-03-21T05:58:40;14.88;;;8.88;;
70985;SDS011;58645;43.068;25.610;2023-03-21T06:01:44;10.07;;;7.15;;
70985;SDS011;58645;43.068;25.610;2023-03-21T06:04:12;11.75;;;7.57;;
70985;SDS011;58645;43.068;25.610;2023-03-21T06:06:42;12.13;;;7.80;;
70985;SDS011;58645;43.068;25.610;2023-03-21T06:09:08;11.05;;;6.90;;
70985;SDS011;58645;43.068;25.610;2023-03-21T06:11:35;13.68;;;7.82;;
70985;SDS011;58645;43.068;25.610;2023-03-21T06:14:02;10.85;;;7.47;;
70985;SDS011;58645;43.068;25.610;2023-03-21T06:16:28;12.63;;;6.63;;
70985;SDS011;58645;43.068;25.610;2023-03-21T06:18:55;13.07;;;7.65;;
70985;SDS011;58645;43.068;25.610;2023-03-21T06:21:21;11.70;;;7.63;;
70985;SDS011;58645;43.068;25.610;2023-03-21T06:23:49;15.52;;;8.68;;
70985;SDS011;58645;43.068;25.610;2023-03-21T06:26:20;14.52;;;8.10;;
70985;SDS011;58645;43.068;25.610;2023-03-21T06:28:52;16.08;;;8.25;;
70985;SDS011;58645;43.068;25.610;2023-03-21T06:31:22;13.82;;;8.40;;
70985;SDS011;58645;43.068;25.610;2023-03-21T06:33:51;14.80;;;9.50;;
70985;SDS011;58645;43.068;25.610;2023-03-21T06:38:48;15.18;;;7.65;;
70985;SDS011;58645;43.068;25.610;2023-03-21T06:48:11;24.35;;;11.80;;
70985;SDS011;58645;43.068;25.610;2023-03-21T06:50:37;28.48;;;11.93;;
70985;SDS011;58645;43.068;25.610;2023-03-21T06:53:02;26.30;;;13.50;;
70985;SDS011;58645;43.068;25.610;2023-03-21T06:55:28;32.22;;;15.30;;
70985;SDS011;58645;43.068;25.610;2023-03-21T06:57:55;22.75;;;12.05;;
70985;SDS011;58645;43.068;25.610;2023-03-21T07:00:22;18.35;;;10.23;;
70985;SDS011;58645;43.068;25.610;2023-03-21T07:02:48;18.25;;;10.48;;
70985;SDS011;58645;43.068;25.610;2023-03-21T07:05:15;17.75;;;10.38;;
70985;SDS011;58645;43.068;25.610;2023-03-21T07:07:41;12.95;;;8.90;;
70985;SDS011;58645;43.068;25.610;2023-03-21T07:10:07;14.52;;;9.30;;
70985;SDS011;58645;43.068;25.610;2023-03-21T07:12:34;14.30;;;8.63;;
70985;SDS011;58645;43.068;25.610;2023-03-21T07:17:27;10.27;;;6.75;;
70985;SDS011;58645;43.068;25.610;2023-03-21T07:22:18;16.38;;;10.32;;
70985;SDS011;58645;43.068;25.610;2023-03-21T07:24:49;17.17;;;10.43;;
70985;SDS011;58645;43.068;25.610;2023-03-21T07:27:16;15.27;;;10.15;;
70985;SDS011;58645;43.068;25.610;2023-03-21T07:29:45;12.40;;;10.25;;
70985;SDS011;58645;43.068;25.610;2023-03-21T07:32:11;12.23;;;9.35;;
70985;SDS011;58645;43.068;25.610;2023-03-21T07:34:40;12.90;;;8.70;;
70985;SDS011;58645;43.068;25.610;2023-03-21T07:37:06;14.38;;;11.40;;
70985;SDS011;58645;43.068;25.610;2023-03-21T07:39:32;17.17;;;14.13;;
70985;SDS011;58645;43.068;25.610;2023-03-21T07:41:59;14.82;;;12.23;;
70985;SDS011;58645;43.068;25.610;2023-03-21T07:44:25;7.22;;;6.10;;
70985;SDS011;58645;43.068;25.610;2023-03-21T07:48:23;11.15;;;6.28;;
70985;SDS011;58645;43.068;25.610;2023-03-21T07:50:58;9.93;;;5.75;;
70985;SDS011;58645;43.068;25.610;2023-03-21T07:58:00;8.82;;;6.15;;
70985;SDS011;58645;43.068;25.610;2023-03-21T08:00:27;10.88;;;5.63;;
70985;SDS011;58645;43.068;25.610;2023-03-21T08:03:03;8.32;;;4.75;;
70985;SDS011;58645;43.068;25.610;2023-03-21T08:05:35;8.57;;;5.22;;
70985;SDS011;58645;43.068;25.610;2023-03-21T08:08:02;5.90;;;4.40;;
70985;SDS011;58645;43.068;25.610;2023-03-21T08:10:29;8.65;;;4.78;;
70985;SDS011;58645;43.068;25.610;2023-03-21T08:12:56;8.38;;;4.68;;
70985;SDS011;58645;43.068;25.610;2023-03-21T08:15:27;7.78;;;4.80;;
70985;SDS011;58645;43.068;25.610;2023-03-21T08:17:53;7.90;;;5.00;;
70985;SDS011;58645;43.068;25.610;2023-03-21T08:22:45;8.07;;;4.90;;
70985;SDS011;58645;43.068;25.610;2023-03-21T08:25:12;8.25;;;5.00;;
70985;SDS011;58645;43.068;25.610;2023-03-21T08:27:40;9.88;;;6.68;;
70985;SDS011;58645;43.068;25.610;2023-03-21T08:30:10;19.48;;;7.93;;
70985;SDS011;58645;43.068;25.610;2023-03-21T08:32:40;14.18;;;7.22;;
70985;SDS011;58645;43.068;25.610;2023-03-21T08:37:35;14.18;;;8.73;;
70985;SDS011;58645;43.068;25.610;2023-03-21T08:40:15;11.73;;;8.25;;
70985;SDS011;58645;43.068;25.610;2023-03-21T08:42:47;12.13;;;7.78;;
70985;SDS011;58645;43.068;25.610;2023-03-21T08:47:40;10.15;;;6.85;;
70985;SDS011;58645;43.068;25.610;2023-03-21T08:50:10;10.73;;;6.68;;
70985;SDS011;58645;43.068;25.610;2023-03-21T08:52:38;11.07;;;6.25;;
70985;SDS011;58645;43.068;25.610;2023-03-21T08:55:06;12.13;;;7.68;;
70985;SDS011;58645;43.068;25.610;2023-03-21T08:57:39;8.70;;;6.30;;
70985;SDS011;58645;43.068;25.610;2023-03-21T09:00:10;9.25;;;5.95;;
70985;SDS011;58645;43.068;25.610;2023-03-21T09:02:41;8.75;;;5.53;;
70985;SDS011;58645;43.068;25.610;2023-03-21T09:05:09;8.63;;;5.63;;
70985;SDS011;58645;43.068;25.610;2023-03-21T09:07:40;11.05;;;5.60;;
70985;SDS011;58645;43.068;25.610;2023-03-21T09:10:06;10.43;;;6.32;;
70985;SDS011;58645;43.068;25.610;2023-03-21T09:12:38;10.02;;;6.72;;
70985;SDS011;58645;43.068;25.610;2023-03-21T09:15:14;7.03;;;5.20;;
70985;SDS011;58645;43.068;25.610;2023-03-21T09:17:42;8.48;;;6.28;;
70985;SDS011;58645;43.068;25.610;2023-03-21T09:20:09;7.13;;;5.15;;
70985;SDS011;58645;43.068;25.610;2023-03-21T09:22:44;7.93;;;5.20;;
70985;SDS011;58645;43.068;25.610;2023-03-21T09:25:43;10.85;;;5.50;;
70985;SDS011;58645;43.068;25.610;2023-03-21T09:28:35;10.68;;;6.15;;
70985;SDS011;58645;43.068;25.610;2023-03-21T09:33:36;9.02;;;7.35;;
70985;SDS011;58645;43.068;25.610;2023-03-21T09:36:06;8.55;;;6.55;;
70985;SDS011;58645;43.068;25.610;2023-03-21T09:38:41;9.32;;;6.47;;
70985;SDS011;58645;43.068;25.610;2023-03-21T09:41:29;13.75;;;8.13;;
70985;SDS011;58645;43.068;25.610;2023-03-21T09:49:44;10.63;;;6.13;;
70985;SDS011;58645;43.068;25.610;2023-03-21T09:55:13;9.70;;;6.97;;
70985;SDS011;58645;43.068;25.610;2023-03-21T10:00:47;8.30;;;5.95;;
70985;SDS011;58645;43.068;25.610;2023-03-21T10:03:24;9.35;;;6.30;;
70985;SDS011;58645;43.068;25.610;2023-03-21T10:05:57;9.65;;;5.70;;
70985;SDS011;58645;43.068;25.610;2023-03-21T10:08:29;10.98;;;6.45;;
70985;SDS011;58645;43.068;25.610;2023-03-21T10:11:11;11.80;;;6.97;;
70985;SDS011;58645;43.068;25.610;2023-03-21T10:14:02;11.15;;;7.60;;
70985;SDS011;58645;43.068;25.610;2023-03-21T10:16:40;11.20;;;6.05;;
70985;SDS011;58645;43.068;25.610;2023-03-21T10:19:14;9.45;;;6.68;;
70985;SDS011;58645;43.068;25.610;2023-03-21T10:21:52;12.05;;;6.65;;
70985;SDS011;58645;43.068;25.610;2023-03-21T10:26:56;9.70;;;6.63;;
70985;SDS011;58645;43.068;25.610;2023-03-21T10:31:49;8.30;;;6.13;;
70985;SDS011;58645;43.068;25.610;2023-03-21T10:37:12;12.25;;;6.70;;
70985;SDS011;58645;43.068;25.610;2023-03-21T10:39:47;9.80;;;6.30;;
70985;SDS011;58645;43.068;25.610;2023-03-21T10:44:59;12.25;;;7.60;;
70985;SDS011;58645;43.068;25.610;2023-03-21T10:47:30;9.23;;;7.15;;
70985;SDS011;58645;43.068;25.610;2023-03-21T10:50:05;11.77;;;6.70;;
70985;SDS011;58645;43.068;25.610;2023-03-21T10:52:36;11.43;;;6.35;;
70985;SDS011;58645;43.068;25.610;2023-03-21T10:58:06;11.43;;;7.03;;
70985;SDS011;58645;43.068;25.610;2023-03-21T11:00:36;11.38;;;7.22;;
70985;SDS011;58645;43.068;25.610;2023-03-21T11:03:06;11.20;;;7.57;;
70985;SDS011;58645;43.068;25.610;2023-03-21T11:05:47;10.07;;;6.82;;
70985;SDS011;58645;43.068;25.610;2023-03-21T11:08:17;14.50;;;7.25;;
70985;SDS011;58645;43.068;25.610;2023-03-21T11:13:16;9.90;;;6.25;;
70985;SDS011;58645;43.068;25.610;2023-03-21T11:15:51;10.15;;;7.07;;
70985;SDS011;58645;43.068;25.610;2023-03-21T11:18:23;12.30;;;7.00;;
70985;SDS011;58645;43.068;25.610;2023-03-21T11:20:55;10.25;;;6.25;;
70985;SDS011;58645;43.068;25.610;2023-03-21T11:23:26;8.73;;;7.10;;
70985;SDS011;58645;43.068;25.610;2023-03-21T11:25:54;8.90;;;6.07;;
70985;SDS011;58645;43.068;25.610;2023-03-21T11:28:23;10.10;;;6.45;;
70985;SDS011;58645;43.068;25.610;2023-03-21T11:30:58;10.60;;;6.72;;
70985;SDS011;58645;43.068;25.610;2023-03-21T11:33:26;9.98;;;6.53;;
70985;SDS011;58645;43.068;25.610;2023-03-21T11:38:51;9.38;;;6.75;;
70985;SDS011;58645;43.068;25.610;2023-03-21T11:41:29;10.18;;;7.05;;
70985;SDS011;58645;43.068;25.610;2023-03-21T11:43:57;8.80;;;6.10;;
70985;SDS011;58645;43.068;25.610;2023-03-21T11:46:28;11.10;;;6.53;;
70985;SDS011;58645;43.068;25.610;2023-03-21T11:48:56;8.65;;;5.32;;
70985;SDS011;58645;43.068;25.610;2023-03-21T11:56:59;9.65;;;6.70;;
70985;SDS011;58645;43.068;25.610;2023-03-21T12:05:18;9.55;;;6.15;;
70985;SDS011;58645;43.068;25.610;2023-03-21T12:22:06;8.98;;;5.93;;
70985;SDS011;58645;43.068;25.610;2023-03-21T12:38:43;9.40;;;4.93;;
70985;SDS011;58645;43.068;25.610;2023-03-21T12:44:14;8.88;;;6.03;;
70985;SDS011;58645;43.068;25.610;2023-03-21T12:46:46;9.35;;;5.68;;
70985;SDS011;58645;43.068;25.610;2023-03-21T12:49:30;9.18;;;4.85;;
70985;SDS011;58645;43.068;25.610;2023-03-21T12:54:51;9.55;;;5.97;;
70985;SDS011;58645;43.068;25.610;2023-03-21T12:57:39;8.35;;;5.72;;
70985;SDS011;58645;43.068;25.610;2023-03-21T13:03:18;9.50;;;6.15;;
70985;SDS011;58645;43.068;25.610;2023-03-21T13:05:57;9.18;;;5.82;;
70985;SDS011;58645;43.068;25.610;2023-03-21T13:08:33;10.23;;;6.05;;
70985;SDS011;58645;43.068;25.610;2023-03-21T13:11:06;8.95;;;6.15;;
70985;SDS011;58645;43.068;25.610;2023-03-21T13:16:32;9.23;;;5.45;;
70985;SDS011;58645;43.068;25.610;2023-03-21T13:19:40;11.55;;;5.35;;
70985;SDS011;58645;43.068;25.610;2023-03-21T13:22:41;7.30;;;5.82;;
70985;SDS011;58645;43.068;25.610;2023-03-21T13:25:18;7.75;;;5.60;;
70985;SDS011;58645;43.068;25.610;2023-03-21T13:27:53;9.25;;;5.55;;
70985;SDS011;58645;43.068;25.610;2023-03-21T13:30:28;9.70;;;5.57;;
70985;SDS011;58645;43.068;25.610;2023-03-21T13:35:55;8.88;;;6.13;;
70985;SDS011;58645;43.068;25.610;2023-03-21T13:38:30;9.75;;;5.97;;
70985;SDS011;58645;43.068;25.610;2023-03-21T13:40:59;13.02;;;6.53;;
70985;SDS011;58645;43.068;25.610;2023-03-21T13:43:40;9.45;;;6.25;;
70985;SDS011;58645;43.068;25.610;2023-03-21T13:48:55;12.15;;;6.57;;
70985;SDS011;58645;43.068;25.610;2023-03-21T13:59:11;10.23;;;5.60;;
70985;SDS011;58645;43.068;25.610;2023-03-21T14:04:44;11.10;;;6.55;;
70985;SDS011;58645;43.068;25.610;2023-03-21T14:07:11;10.85;;;5.43;;
70985;SDS011;58645;43.068;25.610;2023-03-21T14:09:49;12.98;;;6.13;;
70985;SDS011;58645;43.068;25.610;2023-03-21T14:12:28;10.23;;;6.53;;
70985;SDS011;58645;43.068;25.610;2023-03-21T14:17:49;10.48;;;6.50;;
70985;SDS011;58645;43.068;25.610;2023-03-21T14:20:28;11.73;;;6.68;;
70985;SDS011;58645;43.068;25.610;2023-03-21T14:22:57;11.35;;;6.65;;
70985;SDS011;58645;43.068;25.610;2023-03-21T14:25:31;10.63;;;6.10;;
70985;SDS011;58645;43.068;25.610;2023-03-21T14:27:59;14.25;;;5.90;;
70985;SDS011;58645;43.068;25.610;2023-03-21T14:30:29;10.27;;;6.03;;
70985;SDS011;58645;43.068;25.610;2023-03-21T14:36:27;9.52;;;6.47;;
70985;SDS011;58645;43.068;25.610;2023-03-21T14:39:11;9.60;;;6.10;;
70985;SDS011;58645;43.068;25.610;2023-03-21T14:41:48;8.32;;;4.90;;
70985;SDS011;58645;43.068;25.610;2023-03-21T14:44:25;9.65;;;6.47;;
70985;SDS011;58645;43.068;25.610;2023-03-21T14:47:19;11.95;;;6.00;;
70985;SDS011;58645;43.068;25.610;2023-03-21T14:49:49;8.95;;;4.88;;
70985;SDS011;58645;43.068;25.610;2023-03-21T14:52:21;7.63;;;5.50;;
70985;SDS011;58645;43.068;25.610;2023-03-21T14:54:49;12.75;;;6.28;;
70985;SDS011;58645;43.068;25.610;2023-03-21T14:57:20;10.77;;;6.15;;
70985;SDS011;58645;43.068;25.610;2023-03-21T14:59:49;12.73;;;5.90;;
70985;SDS011;58645;43.068;25.610;2023-03-21T15:04:57;13.32;;;7.95;;
70985;SDS011;58645;43.068;25.610;2023-03-21T15:07:31;13.82;;;7.60;;
70985;SDS011;58645;43.068;25.610;2023-03-21T15:10:02;12.95;;;7.03;;
70985;SDS011;58645;43.068;25.610;2023-03-21T15:12:51;14.73;;;7.85;;
70985;SDS011;58645;43.068;25.610;2023-03-21T15:15:18;14.80;;;7.40;;
70985;SDS011;58645;43.068;25.610;2023-03-21T15:17:46;13.02;;;6.93;;
70985;SDS011;58645;43.068;25.610;2023-03-21T15:20:16;15.48;;;9.85;;
70985;SDS011;58645;43.068;25.610;2023-03-21T15:22:49;15.27;;;7.80;;
70985;SDS011;58645;43.068;25.610;2023-03-21T15:27:46;10.10;;;7.05;;
70985;SDS011;58645;43.068;25.610;2023-03-21T15:30:18;11.05;;;7.38;;
70985;SDS011;58645;43.068;25.610;2023-03-21T15:32:46;17.95;;;7.35;;
70985;SDS011;58645;43.068;25.610;2023-03-21T15:35:35;11.07;;;7.20;;
70985;SDS011;58645;43.068;25.610;2023-03-21T15:38:03;11.45;;;6.60;;
70985;SDS011;58645;43.068;25.610;2023-03-21T15:40:30;13.40;;;6.20;;
70985;SDS011;58645;43.068;25.610;2023-03-21T15:45:47;11.18;;;6.28;;
70985;SDS011;58645;43.068;25.610;2023-03-21T15:48:24;9.55;;;6.22;;
70985;SDS011;58645;43.068;25.610;2023-03-21T15:53:33;9.02;;;6.22;;
70985;SDS011;58645;43.068;25.610;2023-03-21T15:56:00;10.55;;;6.50;;
70985;SDS011;58645;43.068;25.610;2023-03-21T15:58:32;13.35;;;7.00;;
70985;SDS011;58645;43.068;25.610;2023-03-21T16:01:05;12.45;;;6.47;;
70985;SDS011;58645;43.068;25.610;2023-03-21T16:04:13;9.90;;;6.43;;
70985;SDS011;58645;43.068;25.610;2023-03-21T16:06:35;12.13;;;6.95;;
70985;SDS011;58645;43.068;25.610;2023-03-21T16:09:14;10.93;;;6.63;;
70985;SDS011;58645;43.068;25.610;2023-03-21T16:14:18;17.40;;;7.93;;
70985;SDS011;58645;43.068;25.610;2023-03-21T16:16:45;13.88;;;9.48;;
70985;SDS011;58645;43.068;25.610;2023-03-21T16:19:12;12.73;;;8.27;;
70985;SDS011;58645;43.068;25.610;2023-03-21T16:24:07;15.27;;;8.15;;
70985;SDS011;58645;43.068;25.610;2023-03-21T16:26:38;15.65;;;8.60;;
70985;SDS011;58645;43.068;25.610;2023-03-21T16:29:11;12.00;;;7.85;;
70985;SDS011;58645;43.068;25.610;2023-03-21T16:31:39;11.70;;;7.72;;
70985;SDS011;58645;43.068;25.610;2023-03-21T16:34:05;15.40;;;8.63;;
70985;SDS011;58645;43.068;25.610;2023-03-21T16:38:58;15.90;;;8.90;;
70985;SDS011;58645;43.068;25.610;2023-03-21T16:41:25;13.38;;;8.88;;
70985;SDS011;58645;43.068;25.610;2023-03-21T16:43:51;13.18;;;8.73;;
70985;SDS011;58645;43.068;25.610;2023-03-21T16:46:18;15.20;;;8.85;;
70985;SDS011;58645;43.068;25.610;2023-03-21T16:48:47;13.93;;;9.10;;
70985;SDS011;58645;43.068;25.610;2023-03-21T16:51:22;13.48;;;8.70;;
70985;SDS011;58645;43.068;25.610;2023-03-21T16:53:51;16.17;;;8.25;;
70985;SDS011;58645;43.068;25.610;2023-03-21T16:56:19;14.50;;;9.02;;
70985;SDS011;58645;43.068;25.610;2023-03-21T16:58:55;16.08;;;8.43;;
70985;SDS011;58645;43.068;25.610;2023-03-21T17:01:22;13.55;;;8.95;;
70985;SDS011;58645;43.068;25.610;2023-03-21T17:03:54;21.42;;;11.13;;
70985;SDS011;58645;43.068;25.610;2023-03-21T17:06:26;17.23;;;10.38;;
70985;SDS011;58645;43.068;25.610;2023-03-21T17:08:53;17.73;;;9.85;;
70985;SDS011;58645;43.068;25.610;2023-03-21T17:11:21;15.93;;;8.80;;
70985;SDS011;58645;43.068;25.610;2023-03-21T17:13:49;17.30;;;10.63;;
70985;SDS011;58645;43.068;25.610;2023-03-21T17:16:17;20.55;;;12.10;;
70985;SDS011;58645;43.068;25.610;2023-03-21T17:18:46;19.25;;;11.98;;
70985;SDS011;58645;43.068;25.610;2023-03-21T17:23:40;20.95;;;11.55;;
70985;SDS011;58645;43.068;25.610;2023-03-21T17:26:06;19.73;;;11.43;;
70985;SDS011;58645;43.068;25.610;2023-03-21T17:28:37;20.27;;;11.07;;
70985;SDS011;58645;43.068;25.610;2023-03-21T17:31:14;17.17;;;11.38;;
70985;SDS011;58645;43.068;25.610;2023-03-21T17:33:42;18.48;;;10.80;;
70985;SDS011;58645;43.068;25.610;2023-03-21T17:36:15;23.33;;;13.02;;
70985;SDS011;58645;43.068;25.610;2023-03-21T17:38:43;20.58;;;12.02;;
70985;SDS011;58645;43.068;25.610;2023-03-21T17:41:16;21.05;;;11.60;;
70985;SDS011;58645;43.068;25.610;2023-03-21T17:43:43;21.00;;;12.65;;
70985;SDS011;58645;43.068;25.610;2023-03-21T17:46:13;21.25;;;13.25;;
70985;SDS011;58645;43.068;25.610;2023-03-21T17:48:40;23.33;;;13.18;;
70985;SDS011;58645;43.068;25.610;2023-03-21T17:51:07;21.92;;;12.77;;
70985;SDS011;58645;43.068;25.610;2023-03-21T17:53:37;21.58;;;12.43;;
70985;SDS011;58645;43.068;25.610;2023-03-21T17:56:03;21.10;;;12.40;;
70985;SDS011;58645;43.068;25.610;2023-03-21T17:58:28;20.67;;;12.68;;
70985;SDS011;58645;43.068;25.610;2023-03-21T18:00:55;22.38;;;12.07;;
70985;SDS011;58645;43.068;25.610;2023-03-21T18:03:20;19.83;;;12.18;;
70985;SDS011;58645;43.068;25.610;2023-03-21T18:05:46;20.52;;;11.98;;